KIWI

Details ICAO KIWI
Name Wiscasset
Region United States
Timezone America/New_York (UTC-4.0)
Plans Departing 3
Arriving 3
Stats Elevation 74 ft / 23 m (AMSL)
Location 43.961279° -69.712516°
Runways 2
Magnetic Variation 15.566° W
Sunrise 2018-05-24 09:05:53 UTC / 2018-05-24 05:05:53 Local
Sunset 2018-05-25 00:08:24 UTC / 2018-05-24 20:08:24 Local
Advertisement - Login to hide

Runways

ID Width Length Bearing (true) Bearing (mag) Surface Threshold Offset Overrun Length
25 75 ft / 23 m 3,394 ft / 1,034 m 231.62° 247.19° Asphalt 0 ft / 0 m 0 ft / 0 m
25R 49 ft / 15 m 2,107 ft / 642 m 231.31° 246.88° Grass 0 ft / 0 m 0 ft / 0 m
7 75 ft / 23 m 3,394 ft / 1,034 m 51.61° 67.18° Asphalt 0 ft / 0 m 0 ft / 0 m
7L 49 ft / 15 m 2,107 ft / 642 m 51.31° 66.88° Grass 0 ft / 0 m 0 ft / 0 m

Map

Weather


0- 5 10 15 20 25 30 35+ Temperature / ° C

Clouds and Precipitation
Forecast for 2018-05-25 00:00 UTC. Updated 2 hours ago

Ground ~20,000 ft ~40,000 ft Winds

METAR

KIWI 250053Z AUTO 20005KT 10SM SCT110 11/08 A3006 RMK AO2 SLP178 T01110078

TAF

Not found

Frequencies

Recorded 135.72 MHz ASOS
Approach 118.15 MHz BRUNSWICK APP/DEP
Unicom 122.80 MHz CTAF/UNICOM
Warning: Do not use this data for real-world aviation or navigation. No guarantee of current accuracy is given.